Time;durP1;ratioP1;P1;durP2;ratioP2;P2;SDS_P1;SDS_P2;PMS_P1;PMS_P2;Temp;Humidity;BMP_temperature;BMP_pressure;BME280_temperature;BME280_humidity;BME280_pressure;Samples;Min_cycle;Max_cycle;Signal;HPM_P1;HPM_P2
2023/01/26 00:02:16;;;;;;;85.57;30.15;;;0.40;99.90;;;;;;5027660;28;20464;-58
2023/01/26 00:04:42;;;;;;;66.13;27.83;;;0.40;99.90;;;;;;5032799;28;20111;-60
2023/01/26 00:07:09;;;;;;;69.07;27.58;;;0.50;99.90;;;;;;5030411;28;20053;-55
2023/01/26 00:09:36;;;;;;;73.40;27.95;;;0.40;99.90;;;;;;5029913;28;20081;-56
2023/01/26 00:12:05;;;;;;;74.38;27.90;;;0.40;99.90;;;;;;5028487;28;20087;-54
2023/01/26 00:14:48;;;;;;;69.75;27.10;;;0.50;99.90;;;;;;5029380;28;20085;-59
2023/01/26 00:17:24;;;;;;;62.28;25.45;;;0.50;99.90;;;;;;5029575;28;20140;-58
2023/01/26 00:19:53;;;;;;;61.88;25.63;;;0.40;99.90;;;;;;5031895;28;20061;-55
2023/01/26 00:22:19;;;;;;;69.75;26.73;;;0.50;99.90;;;;;;5031272;28;20046;-59
2023/01/26 00:24:46;;;;;;;66.07;24.80;;;0.50;99.90;;;;;;5031438;28;20053;-59
2023/01/26 00:27:14;;;;;;;62.80;24.73;;;0.50;99.90;;;;;;5029180;28;20132;-51
2023/01/26 00:29:41;;;;;;;59.28;24.60;;;0.50;99.90;;;;;;5031598;28;20103;-58
2023/01/26 00:32:08;;;;;;;63.78;24.88;;;0.50;99.90;;;;;;5029391;28;20049;-56
2023/01/26 00:34:35;;;;;;;68.03;25.75;;;0.50;99.90;;;;;;5031573;28;20062;-58
2023/01/26 00:37:02;;;;;;;68.65;26.08;;;0.50;99.90;;;;;;5024575;28;20103;-59
2023/01/26 00:39:28;;;;;;;70.75;26.45;;;0.50;99.90;;;;;;5030256;28;20076;-58
2023/01/26 00:42:08;;;;;;;68.78;26.05;;;0.50;99.90;;;;;;5030798;28;20085;-59
2023/01/26 00:44:40;;;;;;;62.50;24.67;;;0.50;99.90;;;;;;5036594;28;20049;-52
2023/01/26 00:47:08;;;;;;;67.32;26.40;;;0.50;99.90;;;;;;5029664;28;20115;-60
2023/01/26 00:49:35;;;;;;;67.57;26.63;;;0.50;99.90;;;;;;5027778;28;20053;-57
2023/01/26 00:52:02;;;;;;;72.18;27.38;;;0.50;99.90;;;;;;5029294;28;20391;-56
2023/01/26 00:54:28;;;;;;;63.45;26.73;;;0.50;99.90;;;;;;5030306;28;20049;-58
2023/01/26 00:56:55;;;;;;;67.88;26.65;;;0.50;99.90;;;;;;5031178;28;20049;-53
2023/01/26 00:59:22;;;;;;;74.60;27.73;;;0.50;99.90;;;;;;5030852;28;20148;-58
2023/01/26 01:02:00;;;;;;;63.17;26.05;;;0.50;99.90;;;;;;5029536;28;20049;-60
2023/01/26 01:04:28;;;;;;;69.85;27.98;;;0.50;99.90;;;;;;5029182;28;20061;-60
2023/01/26 01:06:55;;;;;;;67.70;27.05;;;0.50;99.90;;;;;;5028913;28;20577;-60
2023/01/26 01:09:22;;;;;;;66.18;27.25;;;0.50;99.90;;;;;;5028698;28;20124;-48
2023/01/26 01:11:49;;;;;;;73.78;28.13;;;0.50;99.90;;;;;;5030790;28;20565;-59
2023/01/26 01:14:15;;;;;;;64.93;25.48;;;0.50;99.90;;;;;;5030390;28;20085;-56
2023/01/26 01:16:42;;;;;;;66.63;26.58;;;0.50;99.90;;;;;;5028846;28;20146;-57
2023/01/26 01:19:12;;;;;;;69.68;25.48;;;0.60;99.90;;;;;;5028676;28;20095;-59
2023/01/26 01:21:39;;;;;;;61.55;24.35;;;0.60;99.90;;;;;;5029877;28;20485;-54
2023/01/26 01:24:07;;;;;;;71.00;26.27;;;0.60;99.90;;;;;;5029938;28;20095;-59
2023/01/26 01:26:33;;;;;;;67.00;26.25;;;0.60;99.90;;;;;;5029485;28;20398;-55
2023/01/26 01:29:00;;;;;;;66.32;26.33;;;0.60;99.90;;;;;;5027978;28;20037;-62
2023/01/26 01:31:28;;;;;;;65.63;26.58;;;0.60;99.90;;;;;;5029905;28;20049;-63
2023/01/26 01:33:55;;;;;;;62.38;25.05;;;0.60;99.90;;;;;;5029924;28;20362;-57
2023/01/26 01:36:23;;;;;;;70.15;26.42;;;0.60;99.90;;;;;;5031778;28;20049;-62
2023/01/26 01:38:50;;;;;;;64.88;25.45;;;0.60;99.90;;;;;;5031020;28;20115;-53
2023/01/26 01:41:21;;;;;;;63.00;25.17;;;0.70;99.90;;;;;;5031400;28;20077;-65
2023/01/26 01:43:48;;;;;;;60.53;24.48;;;0.70;99.90;;;;;;5038863;28;20500;-60
2023/01/26 01:46:17;;;;;;;62.45;25.65;;;0.60;99.90;;;;;;5035676;28;20053;-51
2023/01/26 01:48:48;;;;;;;61.45;24.83;;;0.70;99.90;;;;;;5034432;28;20080;-63
2023/01/26 01:51:18;;;;;;;64.55;26.40;;;0.70;99.90;;;;;;5035783;28;20108;-64
2023/01/26 01:53:48;;;;;;;58.80;24.10;;;0.70;99.90;;;;;;5034325;28;20107;-63
2023/01/26 01:56:20;;;;;;;55.92;23.48;;;0.70;99.90;;;;;;5032122;28;20486;-63
2023/01/26 01:58:47;;;;;;;61.25;24.63;;;0.70;99.90;;;;;;5033035;28;20049;-63
2023/01/26 02:01:14;;;;;;;59.42;24.17;;;0.70;99.90;;;;;;5030582;28;20493;-58
2023/01/26 02:03:40;;;;;;;59.33;24.05;;;0.70;99.90;;;;;;5032428;28;20081;-62
2023/01/26 02:06:09;;;;;;;66.75;25.70;;;0.70;99.90;;;;;;5032659;28;20091;-59
2023/01/26 02:08:37;;;;;;;67.95;25.33;;;0.70;99.90;;;;;;5031843;28;20405;-63
2023/01/26 02:11:07;;;;;;;67.50;25.52;;;0.70;99.90;;;;;;5031531;28;20049;-60
2023/01/26 02:13:34;;;;;;;66.25;25.50;;;0.70;99.90;;;;;;5019795;28;20088;-56
2023/01/26 02:16:01;;;;;;;60.08;23.75;;;0.70;99.90;;;;;;5033120;28;20103;-64
2023/01/26 02:18:28;;;;;;;64.20;25.33;;;0.70;99.90;;;;;;5032716;28;20465;-64
2023/01/26 02:20:56;;;;;;;75.03;25.98;;;0.70;99.90;;;;;;5031795;28;20053;-60
2023/01/26 02:23:27;;;;;;;59.83;23.35;;;0.70;99.90;;;;;;5032982;28;20088;-66
2023/01/26 02:26:07;;;;;;;63.55;24.10;;;0.70;99.90;;;;;;5035942;28;20055;-67
2023/01/26 02:28:34;;;;;;;59.35;22.85;;;0.70;99.90;;;;;;5031798;28;20497;-68
2023/01/26 02:31:01;;;;;;;61.55;22.13;;;0.70;99.90;;;;;;5033321;28;20053;-63
2023/01/26 02:33:29;;;;;;;63.83;25.00;;;0.70;99.90;;;;;;5034322;28;20511;-70
2023/01/26 02:35:55;;;;;;;60.42;23.83;;;0.70;99.90;;;;;;5032871;28;20132;-69
2023/01/26 02:38:23;;;;;;;57.47;22.75;;;0.80;99.90;;;;;;5033985;28;20103;-58
2023/01/26 02:40:51;;;;;;;62.55;22.92;;;0.80;99.90;;;;;;5030747;28;20049;-68
2023/01/26 02:43:18;;;;;;;59.95;23.15;;;0.80;99.90;;;;;;5034329;28;20045;-56
2023/01/26 02:45:45;;;;;;;55.13;21.98;;;0.70;99.90;;;;;;5032396;28;20055;-66
2023/01/26 02:48:12;;;;;;;58.92;23.38;;;0.80;99.90;;;;;;5032309;28;20084;-59
2023/01/26 02:50:38;;;;;;;53.65;22.27;;;0.80;99.90;;;;;;5034861;28;20087;-67
2023/01/26 02:53:04;;;;;;;55.45;21.95;;;0.80;99.90;;;;;;5033600;28;20406;-66
2023/01/26 02:55:30;;;;;;;55.33;22.42;;;0.80;99.90;;;;;;5033513;28;20103;-63
2023/01/26 02:57:58;;;;;;;52.08;22.05;;;0.80;99.90;;;;;;5033769;28;20049;-66
2023/01/26 03:00:27;;;;;;;51.40;20.98;;;0.90;99.90;;;;;;5031869;28;20101;-67
2023/01/26 03:02:55;;;;;;;59.80;23.00;;;0.80;99.90;;;;;;5033306;28;20049;-61
2023/01/26 03:05:22;;;;;;;56.53;20.42;;;0.90;99.90;;;;;;5030989;28;20084;-63
2023/01/26 03:07:49;;;;;;;51.17;21.30;;;0.90;99.90;;;;;;5031694;28;20127;-60
2023/01/26 03:10:17;;;;;;;58.40;21.40;;;0.90;99.90;;;;;;5030704;28;20567;-67
2023/01/26 03:12:43;;;;;;;49.80;20.48;;;0.90;99.90;;;;;;5031278;28;20124;-66
2023/01/26 03:27:25;;;;;;;53.22;19.40;;;0.90;99.90;;;;;;5030444;28;20061;-61
2023/01/26 03:29:16;;;;;;;49.65;19.17;;;0.90;99.90;;;;;;5034224;28;20057;-67
2023/01/26 03:31:43;;;;;;;44.80;18.77;;;0.90;99.90;;;;;;5032289;28;20053;-66
2023/01/26 03:34:11;;;;;;;40.75;17.38;;;0.90;99.90;;;;;;5034150;28;20501;-66
2023/01/26 03:36:38;;;;;;;42.75;18.05;;;1.00;99.90;;;;;;5033355;28;20045;-66
2023/01/26 03:39:04;;;;;;;47.63;18.88;;;1.00;99.90;;;;;;5034899;28;20489;-67
2023/01/26 03:58:00;;;;;;;40.65;16.92;;;1.00;99.90;;;;;;5034575;28;20556;-67
2023/01/26 04:00:26;;;;;;;49.75;19.73;;;1.00;99.90;;;;;;5035203;28;20049;-63
2023/01/26 04:08:23;;;;;;;41.08;16.60;;;1.00;99.90;;;;;;5030284;28;20053;-69
2023/01/26 04:10:51;;;;;;;45.25;17.48;;;1.00;99.90;;;;;;5032568;28;20068;-68
2023/01/26 04:21:34;;;;;;;37.13;15.68;;;1.00;99.90;;;;;;5034864;28;20045;-66
2023/01/26 04:24:01;;;;;;;41.15;16.52;;;1.10;99.90;;;;;;5032198;28;20057;-66
2023/01/26 04:26:33;;;;;;;42.08;17.02;;;1.10;99.90;;;;;;5031504;28;20053;-66
2023/01/26 04:29:01;;;;;;;37.67;16.80;;;1.10;99.90;;;;;;5034950;28;20068;-66
2023/01/26 04:31:28;;;;;;;40.50;18.35;;;1.10;99.90;;;;;;5033287;28;20065;-70
2023/01/26 04:33:55;;;;;;;41.63;17.23;;;1.10;99.90;;;;;;5033297;28;20533;-66
2023/01/26 04:36:21;;;;;;;39.97;17.58;;;1.10;99.90;;;;;;5032598;28;20111;-66
2023/01/26 04:38:50;;;;;;;42.35;17.63;;;1.20;99.90;;;;;;5034864;28;20493;-67
2023/01/26 04:41:16;;;;;;;41.35;17.83;;;1.10;99.90;;;;;;5029706;28;20053;-67
2023/01/26 04:43:43;;;;;;;44.88;17.27;;;1.10;99.90;;;;;;5031068;28;20072;-64
2023/01/26 04:46:10;;;;;;;40.55;17.00;;;1.10;99.90;;;;;;5030596;28;20049;-68
2023/01/26 04:48:37;;;;;;;47.30;18.17;;;1.10;99.90;;;;;;5027355;28;20050;-69
2023/01/26 04:51:05;;;;;;;37.83;16.33;;;1.10;99.90;;;;;;5031614;28;20130;-56
2023/01/26 04:53:32;;;;;;;42.92;17.10;;;1.20;99.90;;;;;;5032732;28;20050;-65
2023/01/26 04:56:00;;;;;;;48.35;18.63;;;1.20;99.90;;;;;;5030953;28;20449;-62
2023/01/26 04:58:27;;;;;;;40.38;17.67;;;1.20;99.90;;;;;;5033890;28;20053;-63
2023/01/26 05:00:54;;;;;;;47.58;18.52;;;1.20;99.90;;;;;;5031797;28;20104;-70
2023/01/26 05:03:22;;;;;;;40.20;17.20;;;1.20;99.90;;;;;;5029598;28;20080;-54
2023/01/26 05:05:49;;;;;;;43.88;18.35;;;1.20;99.90;;;;;;5020481;28;20475;-46
2023/01/26 05:08:16;;;;;;;35.95;16.13;;;1.20;99.90;;;;;;5024791;28;20053;-57
2023/01/26 05:10:42;;;;;;;51.33;18.52;;;1.20;99.90;;;;;;5029806;28;20109;-69
2023/01/26 05:13:11;;;;;;;46.33;19.05;;;1.20;99.90;;;;;;5033411;28;20103;-68
2023/01/26 05:15:37;;;;;;;35.75;16.45;;;1.20;99.90;;;;;;5030369;28;20100;-67
2023/01/26 05:18:04;;;;;;;39.03;16.90;;;1.20;99.90;;;;;;5031229;28;20103;-65
2023/01/26 05:20:31;;;;;;;41.33;18.23;;;1.30;99.90;;;;;;5016468;28;20528;-62
2023/01/26 05:22:58;;;;;;;38.90;16.70;;;1.20;99.90;;;;;;5030256;28;20049;-66
2023/01/26 05:25:25;;;;;;;43.53;18.52;;;1.30;99.90;;;;;;5037160;28;20081;-70
2023/01/26 05:27:52;;;;;;;36.60;17.15;;;1.30;99.90;;;;;;5038066;28;20053;-68
2023/01/26 05:30:20;;;;;;;44.40;18.60;;;1.30;99.90;;;;;;5036274;28;20053;-64
2023/01/26 05:32:47;;;;;;;44.83;18.10;;;1.30;99.90;;;;;;5037869;28;20053;-70
2023/01/26 05:35:14;;;;;;;40.85;17.73;;;1.30;99.90;;;;;;5038827;28;20080;-67
2023/01/26 05:37:41;;;;;;;42.58;17.92;;;1.30;99.90;;;;;;5036740;28;20092;-71
2023/01/26 05:40:10;;;;;;;43.83;18.02;;;1.30;99.90;;;;;;5036837;28;20055;-68
2023/01/26 05:42:36;;;;;;;51.05;19.35;;;1.30;99.90;;;;;;5034443;28;20057;-69
2023/01/26 05:45:04;;;;;;;52.83;19.70;;;1.30;99.90;;;;;;5038804;28;20099;-68
2023/01/26 05:47:32;;;;;;;46.92;18.60;;;1.30;99.90;;;;;;5035584;28;20089;-69
2023/01/26 05:49:59;;;;;;;43.17;18.30;;;1.30;99.90;;;;;;5031755;28;20120;-70
2023/01/26 05:52:25;;;;;;;47.38;18.88;;;1.30;99.90;;;;;;5035103;28;20073;-72
2023/01/26 05:54:52;;;;;;;47.70;17.88;;;1.30;99.90;;;;;;5035175;28;20494;-68
2023/01/26 05:57:19;;;;;;;55.88;21.00;;;1.30;99.90;;;;;;5038196;28;20053;-66
2023/01/26 05:59:46;;;;;;;46.10;18.88;;;1.30;99.90;;;;;;5035366;28;20068;-70
2023/01/26 06:02:13;;;;;;;39.50;17.73;;;1.30;99.90;;;;;;5035182;28;20133;-69
2023/01/26 06:04:41;;;;;;;40.88;18.83;;;1.40;99.90;;;;;;5037122;28;20085;-72
2023/01/26 06:07:09;;;;;;;45.20;18.70;;;1.40;99.90;;;;;;5034315;28;20054;-70
2023/01/26 06:09:36;;;;;;;55.92;21.75;;;1.40;99.90;;;;;;5034590;28;20234;-69
2023/01/26 06:12:03;;;;;;;61.47;21.60;;;1.40;99.90;;;;;;5034746;28;20129;-71
2023/01/26 06:14:30;;;;;;;57.72;20.70;;;1.40;99.90;;;;;;5034457;28;20127;-68
2023/01/26 06:16:56;;;;;;;51.33;19.45;;;1.40;99.90;;;;;;5034871;28;20497;-71
2023/01/26 06:19:23;;;;;;;47.58;19.58;;;1.40;99.90;;;;;;5036516;28;20049;-70
2023/01/26 06:21:52;;;;;;;48.35;19.45;;;1.40;99.90;;;;;;5034571;28;21033;-58
2023/01/26 06:24:19;;;;;;;49.97;18.90;;;1.40;99.90;;;;;;5027690;28;20065;-60
2023/01/26 06:26:47;;;;;;;69.75;20.90;;;1.40;99.90;;;;;;5030216;28;20041;-59
2023/01/26 06:29:14;;;;;;;50.55;19.33;;;1.40;99.90;;;;;;5030164;28;20216;-71
2023/01/26 06:31:41;;;;;;;48.83;19.75;;;1.40;99.90;;;;;;5025250;28;20045;-70
2023/01/26 06:34:08;;;;;;;47.33;19.98;;;1.40;99.90;;;;;;5033303;28;20056;-60
2023/01/26 06:36:34;;;;;;;47.45;19.95;;;1.50;99.90;;;;;;5030952;28;20405;-62
2023/01/26 06:39:03;;;;;;;47.20;19.92;;;1.40;99.90;;;;;;5032940;28;20077;-71
2023/01/26 06:41:30;;;;;;;51.05;21.00;;;1.40;99.90;;;;;;5026963;28;20096;-70
2023/01/26 06:43:56;;;;;;;64.38;20.60;;;1.40;99.90;;;;;;5028941;28;20046;-70
2023/01/26 06:46:23;;;;;;;54.13;21.08;;;1.40;99.90;;;;;;5029963;28;20049;-64
2023/01/26 06:48:50;;;;;;;65.93;20.50;;;1.40;99.90;;;;;;5031768;28;20053;-63
2023/01/26 06:51:57;;;;;;;57.10;21.52;;;1.40;99.90;;;;;;5029717;28;20314;-70
2023/01/26 06:54:25;;;;;;;47.40;18.83;;;1.40;99.90;;;;;;5027725;28;20124;-67
2023/01/26 06:56:52;;;;;;;51.83;21.15;;;1.40;99.90;;;;;;5034072;28;20072;-65
2023/01/26 06:59:19;;;;;;;47.92;19.55;;;1.40;99.90;;;;;;5031366;28;20076;-63
2023/01/26 07:01:47;;;;;;;46.20;18.77;;;1.40;99.90;;;;;;5032446;28;20053;-64
2023/01/26 07:04:17;;;;;;;50.28;19.13;;;1.40;99.90;;;;;;5034704;28;20049;-69
2023/01/26 07:06:44;;;;;;;62.10;22.17;;;1.50;99.90;;;;;;5034344;28;20054;-66
2023/01/26 07:09:11;;;;;;;58.92;20.85;;;1.50;99.90;;;;;;5031310;28;20123;-60
2023/01/26 07:11:39;;;;;;;54.30;19.75;;;1.50;99.90;;;;;;5035294;28;20038;-69
2023/01/26 07:14:06;;;;;;;52.20;19.85;;;1.50;99.90;;;;;;5034955;28;20096;-66
2023/01/26 07:16:33;;;;;;;51.25;19.40;;;1.50;99.90;;;;;;5035023;28;20068;-64
2023/01/26 07:18:59;;;;;;;72.15;23.08;;;1.50;99.90;;;;;;5032107;28;20461;-63
2023/01/26 07:21:26;;;;;;;61.42;21.38;;;1.50;99.90;;;;;;5034719;28;20049;-61
2023/01/26 07:23:53;;;;;;;66.10;22.25;;;1.50;99.90;;;;;;5032176;28;20054;-59
2023/01/26 07:26:20;;;;;;;68.47;22.63;;;1.50;99.90;;;;;;5030161;28;20060;-64
2023/01/26 07:28:48;;;;;;;47.55;20.60;;;1.50;99.90;;;;;;5029197;28;20517;-61
2023/01/26 07:31:15;;;;;;;50.42;19.20;;;1.60;99.90;;;;;;5032939;28;20107;-66
2023/01/26 07:33:42;;;;;;;70.35;22.90;;;1.50;99.90;;;;;;5032186;28;20576;-68
2023/01/26 07:36:09;;;;;;;59.88;21.88;;;1.50;99.90;;;;;;5033478;28;20091;-62
2023/01/26 07:38:36;;;;;;;55.05;22.27;;;1.50;99.90;;;;;;5033117;28;20056;-66
2023/01/26 07:41:07;;;;;;;53.92;20.25;;;1.60;99.90;;;;;;5033496;28;20073;-63
2023/01/26 07:43:35;;;;;;;68.82;23.13;;;1.50;99.90;;;;;;5034042;28;20124;-65
2023/01/26 07:46:03;;;;;;;70.10;23.90;;;1.50;99.90;;;;;;5034446;28;20572;-65
2023/01/26 07:48:30;;;;;;;69.63;22.00;;;1.50;99.90;;;;;;5034458;28;20046;-65
2023/01/26 07:51:00;;;;;;;59.33;20.25;;;1.50;99.90;;;;;;5033915;28;20060;-61
2023/01/26 07:53:28;;;;;;;61.78;20.98;;;1.60;99.90;;;;;;5031836;28;20092;-59
2023/01/26 07:55:56;;;;;;;74.72;22.15;;;1.50;99.90;;;;;;5032500;28;20100;-65
2023/01/26 07:58:23;;;;;;;58.90;22.40;;;1.50;99.90;;;;;;5033134;28;20466;-64
2023/01/26 08:00:49;;;;;;;64.13;20.70;;;1.50;99.90;;;;;;5033028;28;20139;-59
2023/01/26 08:03:18;;;;;;;76.60;22.77;;;1.50;99.90;;;;;;5033678;28;20409;-62
2023/01/26 08:05:46;;;;;;;59.80;20.63;;;1.50;99.90;;;;;;5032985;28;20132;-63
2023/01/26 08:08:12;;;;;;;53.40;18.88;;;1.60;99.90;;;;;;5032210;28;20107;-63
2023/01/26 08:10:39;;;;;;;54.78;19.70;;;1.50;99.90;;;;;;5031638;28;20053;-55
2023/01/26 08:13:06;;;;;;;48.05;18.40;;;1.50;99.90;;;;;;5031550;28;20561;-60
2023/01/26 08:15:33;;;;;;;65.68;21.38;;;1.50;99.90;;;;;;5032021;28;20107;-63
2023/01/26 08:18:02;;;;;;;56.05;18.65;;;1.50;99.90;;;;;;5052532;28;20049;-63
2023/01/26 08:20:30;;;;;;;93.28;20.90;;;1.50;99.90;;;;;;5050673;28;20053;-58
2023/01/26 08:22:57;;;;;;;96.57;20.88;;;1.60;99.90;;;;;;5031393;28;20478;-58
2023/01/26 08:25:24;;;;;;;168.82;22.38;;;1.60;99.90;;;;;;5032369;28;20053;-62
2023/01/26 08:27:51;;;;;;;111.22;21.88;;;1.50;99.90;;;;;;5032492;28;20053;-58
2023/01/26 08:30:18;;;;;;;60.05;19.35;;;1.50;99.90;;;;;;5031859;28;20139;-59
2023/01/26 08:32:45;;;;;;;105.53;21.08;;;1.50;99.90;;;;;;5032115;28;20480;-58
2023/01/26 08:35:11;;;;;;;59.58;18.67;;;1.70;99.90;;;;;;5032454;28;20085;-59
2023/01/26 08:37:40;;;;;;;59.10;18.23;;;1.50;99.90;;;;;;5032533;28;20103;-60
2023/01/26 08:40:08;;;;;;;46.00;17.63;;;1.50;99.90;;;;;;5032593;28;20099;-62
2023/01/26 08:42:35;;;;;;;60.63;18.80;;;1.50;99.90;;;;;;5032339;28;20053;-61
2023/01/26 08:45:01;;;;;;;104.07;20.40;;;1.50;99.90;;;;;;5032603;28;20091;-61
2023/01/26 08:47:28;;;;;;;132.18;21.52;;;1.50;99.90;;;;;;5032297;28;20045;-61
2023/01/26 08:49:55;;;;;;;92.22;19.17;;;1.50;99.90;;;;;;5031227;28;20502;-51
2023/01/26 08:52:22;;;;;;;57.92;17.85;;;1.50;99.90;;;;;;5032539;28;20091;-61
2023/01/26 08:54:50;;;;;;;54.92;18.15;;;1.50;99.90;;;;;;5032298;28;20050;-59
2023/01/26 08:57:17;;;;;;;58.05;18.90;;;1.60;99.90;;;;;;5034415;28;20061;-61
2023/01/26 08:59:43;;;;;;;62.80;19.70;;;1.60;99.90;;;;;;5036557;28;20493;-60
2023/01/26 09:02:10;;;;;;;86.20;19.35;;;1.60;99.90;;;;;;5035738;28;20049;-61
2023/01/26 09:04:37;;;;;;;59.47;19.13;;;1.70;99.90;;;;;;5036283;28;20042;-62
2023/01/26 09:07:04;;;;;;;65.80;19.58;;;1.70;99.90;;;;;;5036297;28;20053;-61
2023/01/26 09:09:31;;;;;;;53.55;17.42;;;1.80;99.90;;;;;;5036165;28;20049;-59
2023/01/26 09:11:59;;;;;;;72.15;19.25;;;1.90;99.90;;;;;;5035006;28;20092;-61
2023/01/26 09:14:27;;;;;;;57.60;17.10;;;1.90;99.90;;;;;;5035963;28;20045;-61
2023/01/26 09:16:54;;;;;;;54.90;16.85;;;2.00;99.90;;;;;;5036157;28;20049;-60
2023/01/26 09:19:21;;;;;;;71.45;18.85;;;2.10;99.90;;;;;;5035969;28;20587;-60
2023/01/26 09:21:47;;;;;;;60.72;16.83;;;2.10;99.90;;;;;;5036211;28;20099;-58
2023/01/26 09:24:14;;;;;;;61.33;17.10;;;2.20;99.90;;;;;;5035730;28;20061;-61
2023/01/26 09:26:41;;;;;;;67.32;16.77;;;2.30;99.90;;;;;;5035781;28;20532;-63
2023/01/26 09:29:09;;;;;;;55.67;16.42;;;2.40;99.90;;;;;;5034677;28;20278;-60
2023/01/26 09:31:36;;;;;;;63.50;18.52;;;2.40;99.90;;;;;;5034679;28;20146;-58
2023/01/26 09:34:03;;;;;;;62.60;18.55;;;2.50;99.90;;;;;;5035596;28;20135;-63
2023/01/26 09:36:29;;;;;;;63.70;19.27;;;2.60;99.90;;;;;;5035814;28;20089;-58
2023/01/26 09:38:56;;;;;;;61.97;16.70;;;2.70;99.90;;;;;;5035973;28;20108;-62
2023/01/26 09:41:37;;;;;;;79.50;20.55;;;2.80;99.90;;;;;;5035519;28;20065;-58
2023/01/26 09:44:05;;;;;;;64.20;20.30;;;2.90;99.90;;;;;;5034428;28;20058;-62
2023/01/26 09:46:40;;;;;;;60.40;16.25;;;2.90;99.90;;;;;;5035643;28;20100;-61
2023/01/26 09:49:09;;;;;;;60.20;17.35;;;3.00;99.90;;;;;;5034557;28;20115;-62
2023/01/26 09:51:37;;;;;;;59.25;15.13;;;3.10;99.90;;;;;;5034365;28;20083;-63
2023/01/26 09:54:06;;;;;;;56.00;13.95;;;3.20;99.90;;;;;;5034539;28;20075;-61
2023/01/26 09:56:33;;;;;;;55.47;13.98;;;3.30;99.90;;;;;;5035342;28;20053;-59
2023/01/26 09:59:05;;;;;;;39.63;10.80;;;3.40;99.90;;;;;;5034381;28;20107;-60
2023/01/26 10:01:38;;;;;;;41.75;11.27;;;3.50;99.90;;;;;;5035535;28;20053;-59
2023/01/26 10:04:09;;;;;;;55.03;11.45;;;3.60;99.90;;;;;;5035260;28;20085;-59
2023/01/26 10:06:36;;;;;;;55.93;10.97;;;3.70;99.90;;;;;;5035242;28;20099;-55
2023/01/26 10:09:15;;;;;;;49.33;9.20;;;3.80;99.90;;;;;;5034577;28;20338;-57
2023/01/26 10:11:43;;;;;;;61.05;11.25;;;3.90;99.90;;;;;;5035363;28;20497;-58
2023/01/26 10:14:13;;;;;;;55.15;9.02;;;4.00;99.90;;;;;;5035127;28;20081;-58
2023/01/26 10:16:41;;;;;;;55.75;9.23;;;4.20;99.90;;;;;;5035091;28;20116;-57
2023/01/26 10:19:12;;;;;;;52.67;7.25;;;4.30;99.90;;;;;;5033782;28;20135;-58
2023/01/26 10:21:40;;;;;;;48.72;7.97;;;4.50;99.90;;;;;;5035337;28;20081;-60
2023/01/26 10:24:09;;;;;;;63.33;7.25;;;4.60;99.90;;;;;;5035208;28;20095;-61
2023/01/26 10:26:36;;;;;;;53.95;6.85;;;4.70;99.90;;;;;;5035134;28;20088;-63
2023/01/26 10:29:03;;;;;;;55.40;7.70;;;4.90;99.90;;;;;;5034837;28;20151;-67
2023/01/26 10:31:31;;;;;;;56.22;6.50;;;5.00;99.90;;;;;;5037360;28;20089;-65
2023/01/26 10:34:01;;;;;;;55.03;6.95;;;5.20;99.90;;;;;;5035780;28;20085;-62
2023/01/26 10:36:29;;;;;;;41.05;6.50;;;5.40;99.90;;;;;;5035122;28;20045;-64
2023/01/26 10:38:57;;;;;;;63.55;7.35;;;5.50;99.90;;;;;;5033959;28;20049;-60
2023/01/26 10:41:25;;;;;;;56.08;6.13;;;5.50;99.90;;;;;;5035617;28;20088;-66
2023/01/26 10:43:53;;;;;;;52.17;5.43;;;5.60;99.90;;;;;;5036484;28;20498;-66
2023/01/26 10:46:24;;;;;;;54.15;6.53;;;5.60;99.90;;;;;;5035424;28;20049;-64
2023/01/26 10:48:52;;;;;;;62.85;7.32;;;5.70;99.90;;;;;;5035367;28;20092;-59
2023/01/26 10:51:24;;;;;;;65.70;7.05;;;5.80;99.90;;;;;;5033731;28;20079;-62
2023/01/26 10:53:50;;;;;;;47.58;5.97;;;6.00;99.90;;;;;;5034914;28;20088;-60
2023/01/26 10:56:17;;;;;;;54.47;6.75;;;6.10;99.90;;;;;;5034700;28;20138;-60
2023/01/26 10:58:47;;;;;;;48.05;6.40;;;6.20;99.90;;;;;;5034451;28;20405;-59
2023/01/26 11:01:14;;;;;;;48.65;5.25;;;6.30;99.90;;;;;;5034603;28;20489;-63
2023/01/26 11:03:42;;;;;;;44.20;5.35;;;6.20;99.90;;;;;;5034533;28;20132;-67
2023/01/26 11:06:13;;;;;;;40.92;4.20;;;6.20;99.90;;;;;;5034439;28;20076;-65
2023/01/26 11:08:41;;;;;;;39.97;5.28;;;6.20;99.90;;;;;;5034515;28;20501;-63
2023/01/26 11:11:23;;;;;;;39.63;4.32;;;6.20;99.90;;;;;;5034275;28;20053;-64
2023/01/26 11:14:05;;;;;;;44.33;5.63;;;6.30;99.90;;;;;;5033440;28;20579;-65
2023/01/26 11:16:32;;;;;;;40.80;5.15;;;6.30;99.90;;;;;;5034569;28;20081;-65
2023/01/26 11:19:00;;;;;;;36.78;4.65;;;6.30;99.90;;;;;;5032742;28;20099;-64
2023/01/26 11:21:30;;;;;;;40.08;5.15;;;6.30;99.90;;;;;;5034196;28;20089;-69
2023/01/26 11:24:01;;;;;;;41.45;5.40;;;6.40;99.90;;;;;;5035743;28;20107;-66
2023/01/26 11:27:19;;;;;;;44.65;6.13;;;6.60;99.90;;;;;;5035287;28;20474;-69
2023/01/26 11:29:57;;;;;;;43.60;5.13;;;6.70;99.90;;;;;;4957689;28;20082;-65
2023/01/26 11:32:26;;;;;;;52.63;5.45;;;6.80;99.90;;;;;;5031071;28;20053;-65
2023/01/26 11:35:00;;;;;;;44.13;5.05;;;7.00;99.90;;;;;;5033454;28;20053;-60
2023/01/26 11:37:40;;;;;;;39.08;4.45;;;7.00;99.90;;;;;;5033445;28;20049;-62
2023/01/26 11:40:26;;;;;;;54.88;5.95;;;7.20;99.90;;;;;;5031929;28;20049;-61
2023/01/26 11:43:16;;;;;;;39.80;4.47;;;7.30;99.90;;;;;;5032318;28;20080;-62
2023/01/26 11:45:53;;;;;;;41.08;4.38;;;7.40;99.90;;;;;;5019086;28;20493;-61
2023/01/26 11:48:22;;;;;;;45.53;4.28;;;7.40;99.90;;;;;;5032053;28;20089;-61
2023/01/26 11:50:52;;;;;;;40.63;4.32;;;7.50;99.90;;;;;;5033256;28;20089;-59
2023/01/26 11:53:37;;;;;;;33.88;3.75;;;7.60;99.90;;;;;;5033315;28;20437;-56
2023/01/26 11:56:17;;;;;;;29.67;4.30;;;7.70;99.90;;;;;;5033052;28;20095;-61
2023/01/26 11:58:46;;;;;;;42.35;4.22;;;7.80;99.90;;;;;;5032294;28;20077;-60
2023/01/26 12:01:15;;;;;;;25.45;3.70;;;7.80;99.90;;;;;;5032290;28;20081;-63
2023/01/26 12:03:44;;;;;;;30.25;3.90;;;7.90;99.90;;;;;;5032955;28;20670;-63
2023/01/26 12:06:16;;;;;;;32.55;3.60;;;8.00;99.90;;;;;;5032901;28;20103;-61
2023/01/26 12:08:43;;;;;;;26.27;3.78;;;8.00;99.90;;;;;;5032818;28;20084;-63
2023/01/26 12:11:24;;;;;;;33.30;3.25;;;8.10;99.90;;;;;;5033306;28;20468;-62
2023/01/26 12:13:57;;;;;;;25.42;3.70;;;8.20;99.90;;;;;;5032039;28;20053;-61
2023/01/26 12:16:28;;;;;;;25.40;3.70;;;8.20;99.90;;;;;;5032634;28;20494;-60
2023/01/26 12:18:58;;;;;;;24.63;3.13;;;8.30;99.90;;;;;;5031678;28;20143;-62
2023/01/26 12:21:25;;;;;;;29.92;3.60;;;8.30;99.90;;;;;;5031981;28;20057;-63
2023/01/26 12:23:53;;;;;;;33.53;3.45;;;8.30;99.90;;;;;;5032615;28;20088;-63
2023/01/26 12:26:22;;;;;;;35.50;3.78;;;8.30;99.90;;;;;;5032873;28;20128;-63
2023/01/26 12:28:53;;;;;;;24.45;2.90;;;8.30;99.90;;;;;;5032672;28;20114;-61
2023/01/26 12:31:22;;;;;;;22.38;2.40;;;8.40;99.90;;;;;;5030901;28;20104;-63
2023/01/26 12:33:50;;;;;;;26.88;3.35;;;8.30;99.90;;;;;;5032710;28;20089;-62
2023/01/26 12:36:24;;;;;;;24.63;3.00;;;8.30;99.90;;;;;;5032888;28;20453;-62
2023/01/26 12:38:59;;;;;;;21.95;2.80;;;8.20;99.90;;;;;;5031456;28;20053;-55
2023/01/26 12:41:33;;;;;;;22.90;2.53;;;8.10;99.90;;;;;;5032588;28;20081;-60
2023/01/26 12:44:07;;;;;;;23.17;2.72;;;8.10;99.90;;;;;;5032506;28;20045;-62
2023/01/26 12:46:36;;;;;;;29.80;2.50;;;8.10;99.90;;;;;;5032579;28;20139;-61
2023/01/26 12:49:04;;;;;;;21.52;3.40;;;8.10;99.90;;;;;;5031656;28;20089;-62
2023/01/26 12:51:33;;;;;;;23.50;3.35;;;8.10;99.90;;;;;;5031407;28;20081;-61
2023/01/26 12:54:02;;;;;;;19.90;2.80;;;8.00;99.90;;;;;;5032256;28;20375;-61
2023/01/26 12:56:31;;;;;;;16.85;2.40;;;8.00;99.90;;;;;;5032211;28;20133;-62
2023/01/26 12:58:58;;;;;;;22.13;3.28;;;8.00;99.90;;;;;;5032646;28;20065;-62
2023/01/26 13:01:26;;;;;;;17.42;2.92;;;8.00;99.90;;;;;;5032284;28;20088;-61
2023/01/26 13:03:54;;;;;;;16.90;2.30;;;7.90;99.90;;;;;;5032385;28;20050;-62
2023/01/26 13:06:23;;;;;;;24.98;2.80;;;7.90;99.90;;;;;;5032070;28;20128;-61
2023/01/26 13:08:52;;;;;;;16.20;2.30;;;7.90;99.90;;;;;;5031324;28;20057;-60
2023/01/26 13:11:49;;;;;;;19.83;2.42;;;7.90;99.90;;;;;;5031219;28;20050;-61
2023/01/26 13:14:30;;;;;;;25.33;3.05;;;7.90;99.90;;;;;;5031478;28;20401;-62
2023/01/26 13:16:57;;;;;;;22.55;2.92;;;7.90;99.90;;;;;;5032092;28;20088;-61
2023/01/26 13:19:51;;;;;;;15.90;2.13;;;7.90;99.90;;;;;;5032253;28;20540;-62
2023/01/26 13:22:40;;;;;;;23.90;3.03;;;7.90;99.90;;;;;;5032146;28;20075;-61
2023/01/26 13:25:14;;;;;;;22.80;2.70;;;7.90;99.90;;;;;;5032163;28;20059;-61
2023/01/26 13:27:44;;;;;;;25.67;3.03;;;7.90;99.90;;;;;;5031282;28;20578;-61
2023/01/26 13:30:34;;;;;;;24.58;2.60;;;7.90;99.90;;;;;;5031709;28;20059;-54